AirNav   Everest Fuels
 
 1462 users online  

0LA4 North Caddo Medical Center Heliport
Vivian, Louisiana, USA

GOING TO VIVIAN?


FAA INFORMATION EFFECTIVE 08 SEPTEMBER 2022

Location

FAA Identifier: 0LA4
Lat/Long: 32-51-53.0700N 093-59-21.3700W
32-51.884500N 093-59.356167W
32.8647417,-93.9892694
(estimated)
Elevation: 252 ft. / 77 m (estimated)
Variation: 04E (2000)
From city: 2 miles N of VIVIAN, LA
Time zone: UTC -5 (UTC -6 during Standard Time)
Zip code: 71082

Heliport Operations

Heliport use: Private use, MEDICAL.
Activation date: 11/2000
Control tower: no
ARTCC: FORT WORTH CENTER
FSS: DE RIDDER FLIGHT SERVICE STATION
Attendance: UNATNDD
Wind indicator: yes
Segmented circle: no
Lights: SS-SR

Heliport Communications

WX AWOS-3 at ATA (18 nm NW): 118.250 (903-799-4066)

Nearby radio navigation aids

VOR radial/distance  VOR name  Freq  Var
EICr295/10.6BELCHER VORTAC117.4007E
EMGr317/34.2ELM GROVE VORTAC111.2007E
TXKr167/39.2TEXARKANA VORTAC116.3007E

 
NDB name  Hdg/Dist  Freq  Var  ID
ATLANTA141/17.634704EATA .- - .-

Heliport Services

Runway Information

Helipad H1

Dimensions: 44 x 44 ft. / 13 x 13 m
Surface: concrete
Runway edge lights: PERI
Latitude: 32-51.884500N
Longitude: 093-59.356167W
Elevation: 252.0 ft.
Traffic pattern: leftleft

Heliport Ownership and Management from official FAA records

Ownership: Privately-owned
Owner: NORTH CADDO MEDICAL CENTER
1000 S. SPRUCE STREET
VIVIAN, LA 71082
Phone 318-375-3235
Manager: DAVID JONES
1000 S. SPRUCE STREET
VIVIAN, LA 71082
Phone 318-375-3235
ADDITIONAL CONTACT: PAM HUGHES 7115 S. PINE P.O. BOX 792 VIVIAN, LA 71082 318-375-4003

Additional Remarks

A52-H1 30 FT WIRES 200 FT EAST; 30 FT WIRES 250 FT SOUTH; & 30 FT WIRES 600 FT WEST OF HELIPAD.
FOR CD CTC FORT WORTH ARTCC AT 817-858-7584.

Instrument Procedures

There are no published instrument procedures at 0LA4.

Some nearby airports with instrument procedures:

3F4 - Vivian Airport (1 nm W)
KATA - Hall-Miller Municipal Airport (18 nm NW)
KDTN - Shreveport Downtown Airport (23 nm SE)
KASL - Harrison County Airport (26 nm SW)
KSHV - Shreveport Regional Airport (26 nm S)
 
Loc | Ops | Rwys | IFR | FBO | Links
Com | Nav | Svcs | Stats | Notes
Area around 0LA4 (North Caddo Medical Center Heliport)
 
Road maps at: MapQuest Bing Google
 
Aerial photo
No photo
 
Sectional chart

 
Airport distance calculator
Flying to North Caddo Medical Center Heliport? Find the distance to fly.

From to 0LA4

Sunrise and sunset
Times for 28-Sep-2022
 Local
(UTC-5)
 Zulu
(UTC)
Morning civil twilight06:4411:44
Sunrise07:0912:09
Sunset19:0400:04
Evening civil twilight19:2900:29

Current date and time
Zulu (UTC)  29-Sep-2022 01:02:03
Local (UTC-5)  28-Sep-2022 20:02:03
 
METAR
KATA 
18nm NW 
290055Z AUTO 00000KT 10SM CLR 19/14 A3020 RMK AO2 SLP124 T01890144
KDTN 
22nm SE 
290053Z 00000KT 10SM CLR 23/12 A3020 RMK AO2 SLP224 T02280122
KSHV 
26nm S 
290056Z 07005KT 10SM CLR 23/11 A3019 RMK AO2 SLP221 T02330106
KASL 
26nm SW 
290035Z AUTO 00000KT 10SM CLR 21/12 A3022 RMK AO1 T02110120
KBAD 
27nm SE 
290055Z AUTO 00000KT 10SM CLR 22/12 A3019 RMK AO2 SLP227 T02190116
KTXK 
35nm N 
290053Z 11004KT 10SM CLR 24/11 A3021 RMK AO2 SLP225 T02390106
TAF
KSHV 
26nm S 
281721Z 2818/2918 07004KT P6SM SKC FM282000 03008KT P6SM SKC FM290200 06004KT P6SM SKC FM291400 05011KT P6SM SKC
KBAD 
27nm SE 
282000Z 2820/3002 06012KT 9999 SKC QNH3020INS BECMG 2901/2902 00000KT 9999 SKC QNH3020INS BECMG 2916/2917 06010G15KT 9999 SKC QNH3013INS BECMG 3000/3001 00000KT 9999 SKC QNH3013INS TX29/2821Z TN12/2912Z
NOTAMs
Click for the latest NOTAMs
NOTAMs are issued by the DoD/FAA and will open in a separate window not controlled by AirNav.

 

 
 

Would you like to see your business listed on this page?

 If your business provides an interesting product or service to pilots, flight crews, aircraft, or users of the North Caddo Medical Center Heliport, you should consider listing it here.  To start the listing process, click on the button below
 
Add a business
 

Other Pages about North Caddo Medical Center Heliport

Update a link
 
Copyright © AirNav, LLC. All rights reserved. Privacy Policy  Contact